Time;durP1;ratioP1;P1;durP2;ratioP2;P2;SDS_P1;SDS_P2;PMS_P1;PMS_P2;Temp;Humidity;BMP_temperature;BMP_pressure;BME280_temperature;BME280_humidity;BME280_pressure;Samples;Min_cycle;Max_cycle;Signal;HPM_P1;HPM_P2
2023/04/14 00:01:56;;;;;;;0.70;0.70;;;;;;;19.76;33.40;98523.63;7396518;19;20022;-80
2023/04/14 00:04:22;;;;;;;1.67;0.57;;;;;;;19.72;33.55;98515.53;7396561;19;20015;-80
2023/04/14 00:06:48;;;;;;;0.90;0.90;;;;;;;19.72;33.71;98520.44;7397552;19;20022;-80
2023/04/14 00:09:14;;;;;;;0.82;0.70;;;;;;;19.66;33.91;98521.38;7399160;19;20021;-80
2023/04/14 00:11:40;;;;;;;0.38;0.38;;;;;;;19.65;33.83;98517.06;7396484;19;20014;-80
2023/04/14 00:14:06;;;;;;;0.80;0.80;;;;;;;19.68;33.81;98512.34;7396404;19;20034;-80
2023/04/14 00:16:32;;;;;;;0.77;0.77;;;;;;;19.76;33.95;98520.78;7396977;19;20346;-80
2023/04/14 00:18:58;;;;;;;0.22;0.22;;;;;;;19.75;33.92;98516.47;7397233;19;20362;-80
2023/04/14 00:21:25;;;;;;;0.52;0.52;;;;;;;19.70;33.59;98517.44;7396281;19;20025;-80
2023/04/14 00:23:51;;;;;;;0.77;0.77;;;;;;;19.63;33.56;98518.97;7395749;19;20468;-80
2023/04/14 00:26:18;;;;;;;0.98;0.98;;;;;;;19.66;33.37;98518.56;7396403;19;20363;-80
2023/04/14 00:28:44;;;;;;;1.08;1.00;;;;;;;19.54;33.79;98516.72;7395982;19;20037;-80
2023/04/14 00:31:10;;;;;;;12.70;1.48;;;;;;;19.48;33.87;98521.81;7395933;19;20342;-80
2023/04/14 00:33:36;;;;;;;0.57;0.57;;;;;;;19.50;33.68;98522.78;7395782;19;20374;-80
2023/04/14 00:36:02;;;;;;;0.63;0.63;;;;;;;19.46;33.72;98525.22;7396114;19;20125;-80
2023/04/14 00:38:29;;;;;;;1.00;1.00;;;;;;;19.54;33.73;98523.13;7395184;19;20485;-80
2023/04/14 00:40:55;;;;;;;0.50;0.45;;;;;;;19.43;33.89;98517.88;7393636;19;20011;-80
2023/04/14 00:43:21;;;;;;;0.60;0.60;;;;;;;19.47;33.96;98512.59;7393489;19;20017;-80
2023/04/14 00:45:49;;;;;;;2.05;1.52;;;;;;;19.49;33.61;98523.34;7393404;19;20025;-80
2023/04/14 00:48:17;;;;;;;1.42;0.73;;;;;;;19.48;33.46;98519.75;7393888;19;20017;-80
2023/04/14 00:50:45;;;;;;;12.68;1.23;;;;;;;19.55;33.37;98519.00;7394931;19;20353;-80
2023/04/14 00:53:12;;;;;;;1.00;0.98;;;;;;;19.50;33.82;98517.13;7392926;19;20010;-80
2023/04/14 00:55:40;;;;;;;0.43;0.43;;;;;;;19.59;33.41;98522.19;7392813;19;20018;-80
2023/04/14 00:58:06;;;;;;;0.50;0.50;;;;;;;19.55;33.42;98515.41;7395070;19;20017;-80
2023/04/14 01:00:35;;;;;;;1.05;0.95;;;;;;;19.66;33.65;98523.47;7393347;19;20014;-80
2023/04/14 01:03:01;;;;;;;0.55;0.55;;;;;;;19.70;33.54;98523.06;7392603;19;20018;-79
2023/04/14 01:05:27;;;;;;;0.60;0.60;;;;;;;19.67;33.68;98522.91;7390780;19;20014;-80
2023/04/14 01:07:53;;;;;;;1.10;0.93;;;;;;;19.63;33.41;98519.72;7395470;19;20025;-79
2023/04/14 01:10:20;;;;;;;2.05;1.30;;;;;;;19.62;33.24;98511.81;7398861;19;20018;-80
2023/04/14 01:13:05;;;;;;;1.00;1.00;;;;;;;19.70;33.59;98512.53;7392992;19;20565;-80
2023/04/14 01:15:47;;;;;;;4.50;1.55;;;;;;;19.58;33.67;98517.84;7393029;19;20026;-80
2023/04/14 01:18:32;;;;;;;0.65;0.60;;;;;;;19.64;33.56;98521.19;7393576;19;20018;-80
2023/04/14 01:21:07;;;;;;;0.47;0.47;;;;;;;19.58;33.85;98517.09;7394326;19;20018;-80
2023/04/14 01:24:02;;;;;;;2.72;0.65;;;;;;;19.63;33.83;98518.97;7394577;19;20327;-80
2023/04/14 01:26:30;;;;;;;0.73;0.70;;;;;;;19.67;33.67;98511.59;7392607;19;20528;-80
2023/04/14 01:29:17;;;;;;;3.90;1.35;;;;;;;19.75;33.66;98508.72;7394157;19;20382;-80
2023/04/14 01:31:59;;;;;;;9.07;0.80;;;;;;;19.73;33.60;98510.66;7392010;19;20019;-80
2023/04/14 01:34:32;;;;;;;0.40;0.40;;;;;;;19.69;33.64;98516.66;7393649;19;20046;-80
2023/04/14 01:37:05;;;;;;;1.42;1.33;;;;;;;19.65;33.66;98511.41;7392112;19;20032;-80
2023/04/14 01:39:36;;;;;;;1.48;1.02;;;;;;;19.76;33.26;98513.06;7396395;19;20477;-80
2023/04/14 01:42:08;;;;;;;5.68;1.25;;;;;;;19.86;33.27;98510.41;7392709;19;20357;-80
2023/04/14 01:44:38;;;;;;;1.42;0.82;;;;;;;19.83;33.05;98517.94;7391990;19;20018;-80
2023/04/14 01:47:08;;;;;;;4.50;1.58;;;;;;;19.78;33.22;98518.91;7392021;19;20018;-80
2023/04/14 01:49:38;;;;;;;0.82;0.82;;;;;;;19.79;33.18;98509.13;7395480;19;20018;-80
2023/04/14 01:52:07;;;;;;;0.57;0.57;;;;;;;19.89;33.09;98512.81;7391115;19;20023;-80
2023/04/14 01:54:36;;;;;;;0.75;0.75;;;;;;;19.77;32.90;98503.28;7391497;19;20018;-79
2023/04/14 01:57:04;;;;;;;2.30;1.25;;;;;;;19.66;33.48;98512.91;7391115;19;20059;-80
2023/04/14 01:59:32;;;;;;;1.77;1.02;;;;;;;19.58;33.37;98512.19;7392915;19;20019;-79
2023/04/14 02:02:01;;;;;;;2.05;0.85;;;;;;;19.60;33.46;98509.53;7389995;19;20116;-80
2023/04/14 02:04:28;;;;;;;1.85;0.88;;;;;;;19.57;33.03;98507.88;7390336;19;20011;-80
2023/04/14 02:06:58;;;;;;;0.65;0.55;;;;;;;19.58;33.18;98512.19;7390897;19;20041;-80
2023/04/14 02:09:27;;;;;;;3.40;1.58;;;;;;;19.59;33.44;98515.78;7393223;19;20035;-79
2023/04/14 02:11:54;;;;;;;0.70;0.70;;;;;;;19.56;33.00;98509.19;7391062;19;20018;-80
2023/04/14 02:14:22;;;;;;;0.55;0.55;;;;;;;19.45;33.30;98509.59;7394552;19;20015;-79
2023/04/14 02:16:51;;;;;;;1.17;0.57;;;;;;;19.35;33.22;98505.88;7391106;19;20078;-80
2023/04/14 02:19:19;;;;;;;0.77;0.77;;;;;;;19.29;33.08;98507.34;7394266;19;20021;-80
2023/04/14 02:21:49;;;;;;;0.47;0.47;;;;;;;19.21;33.27;98507.38;7389672;19;20053;-80
2023/04/14 02:24:16;;;;;;;0.40;0.40;;;;;;;19.28;33.42;98503.78;7389978;19;20030;-80
2023/04/14 02:27:00;;;;;;;3.38;2.15;;;;;;;19.27;33.09;98504.34;7390743;19;20018;-80
2023/04/14 02:29:32;;;;;;;0.60;0.60;;;;;;;19.04;33.33;98498.75;7392883;19;20010;-80
2023/04/14 02:32:04;;;;;;;0.50;0.50;;;;;;;19.13;33.57;98501.00;7390035;19;20027;-80
2023/04/14 02:34:37;;;;;;;0.40;0.40;;;;;;;19.10;33.38;98493.66;7392417;19;20011;-80
2023/04/14 02:37:13;;;;;;;8.45;0.85;;;;;;;19.10;33.38;98492.91;7390747;19;20010;-80
2023/04/14 02:39:42;;;;;;;1.52;1.42;;;;;;;19.04;33.46;98490.28;7396426;19;20043;-80
2023/04/14 02:42:21;;;;;;;0.77;0.60;;;;;;;19.01;33.42;98482.97;7390360;19;20358;-80
2023/04/14 02:45:05;;;;;;;0.75;0.75;;;;;;;19.04;33.46;98492.34;7389729;19;20018;-80
2023/04/14 02:47:36;;;;;;;0.82;0.82;;;;;;;19.01;33.26;98488.59;7390621;19;20007;-80
2023/04/14 02:50:05;;;;;;;6.53;1.13;;;;;;;18.95;33.51;98490.84;7394684;19;20022;-80
2023/04/14 02:52:37;;;;;;;0.75;0.55;;;;;;;18.85;33.32;98481.47;7388188;19;20018;-80
2023/04/14 02:55:06;;;;;;;0.80;0.80;;;;;;;18.81;33.28;98475.47;7390370;19;20015;-80
2023/04/14 02:57:33;;;;;;;0.55;0.55;;;;;;;18.77;33.20;98475.84;7390483;19;20477;-80
2023/04/14 02:59:59;;;;;;;1.48;0.93;;;;;;;18.72;33.18;98478.84;7393514;19;20026;-80
2023/04/14 03:02:27;;;;;;;2.17;1.08;;;;;;;18.74;33.20;98476.22;7389161;19;20011;-80
2023/04/14 03:05:02;;;;;;;0.82;0.82;;;;;;;18.75;33.30;98477.72;7391509;19;20032;-80
2023/04/14 03:07:51;;;;;;;0.80;0.80;;;;;;;18.60;33.31;98472.09;7397835;19;20359;-80
2023/04/14 03:10:20;;;;;;;0.85;0.70;;;;;;;18.57;33.60;98473.97;7401332;19;20015;-80
2023/04/14 03:12:49;;;;;;;0.70;0.70;;;;;;;18.60;33.36;98474.91;7394946;19;20021;-80
2023/04/14 03:15:17;;;;;;;0.50;0.50;;;;;;;18.60;33.19;98477.72;7396757;19;20010;-80
2023/04/14 03:17:47;;;;;;;0.93;0.93;;;;;;;18.62;33.29;98475.84;7397614;19;20022;-80
2023/04/14 03:20:18;;;;;;;0.38;0.38;;;;;;;18.72;33.07;98473.19;7401539;19;20015;-80
2023/04/14 03:22:59;;;;;;;0.73;0.73;;;;;;;18.71;33.39;98471.72;7395074;19;20018;-80
2023/04/14 03:25:28;;;;;;;0.20;0.20;;;;;;;18.65;33.07;98468.31;7394966;19;20017;-80
2023/04/14 03:27:59;;;;;;;2.13;0.73;;;;;;;18.65;33.24;98468.31;7396327;19;20070;-80
2023/04/14 03:30:29;;;;;;;0.70;0.70;;;;;;;18.59;33.48;98479.03;7396031;19;20473;-80
2023/04/14 03:33:01;;;;;;;0.75;0.75;;;;;;;18.45;33.21;98470.00;7394363;19;20014;-80
2023/04/14 03:35:28;;;;;;;0.30;0.30;;;;;;;18.37;33.54;98460.75;7395762;19;20013;-80
2023/04/14 03:37:58;;;;;;;0.95;0.95;;;;;;;18.40;33.27;98453.25;7395848;19;20022;-81
2023/04/14 03:40:30;;;;;;;5.50;0.68;;;;;;;18.42;33.10;98456.25;7395184;19;20018;-80
2023/04/14 03:42:57;;;;;;;11.70;0.80;;;;;;;18.38;33.41;98448.19;7392721;19;20017;-80
2023/04/14 03:45:27;;;;;;;0.40;0.40;;;;;;;18.27;33.40;98457.00;7395189;19;20365;-80
2023/04/14 03:48:01;;;;;;;0.40;0.40;;;;;;;18.31;33.89;98445.34;7397412;19;20023;-80
2023/04/14 03:50:35;;;;;;;0.60;0.60;;;;;;;18.30;33.36;98443.88;7395053;19;20035;-80
2023/04/14 03:53:04;;;;;;;0.63;0.63;;;;;;;18.22;33.04;98451.53;7396524;19;20018;-80
2023/04/14 03:55:34;;;;;;;0.88;0.88;;;;;;;18.23;33.36;98447.41;7395780;19;20085;-80
2023/04/14 03:58:02;;;;;;;0.93;0.93;;;;;;;18.17;33.06;98453.97;7396254;19;20014;-80
2023/04/14 04:00:29;;;;;;;0.68;0.65;;;;;;;18.21;33.42;98448.00;7395231;19;20100;-79
2023/04/14 04:02:57;;;;;;;0.52;0.52;;;;;;;18.28;33.15;98443.69;7393472;19;20484;-80
2023/04/14 04:05:23;;;;;;;23.67;1.10;;;;;;;18.27;33.68;98433.69;7393533;19;20015;-80
2023/04/14 04:07:51;;;;;;;0.82;0.82;;;;;;;18.21;33.48;98444.41;7395217;19;20089;-80
2023/04/14 04:10:20;;;;;;;27.60;1.98;;;;;;;18.29;33.38;98445.16;7398764;19;20007;-80
2023/04/14 04:12:48;;;;;;;1.33;1.25;;;;;;;18.29;33.16;98436.72;7392975;19;20374;-80
2023/04/14 04:15:15;;;;;;;0.55;0.55;;;;;;;18.35;33.58;98435.22;7393498;19;20025;-80
2023/04/14 04:17:44;;;;;;;2.28;0.82;;;;;;;18.41;33.56;98432.94;7398757;19;20014;-80
2023/04/14 04:20:14;;;;;;;0.77;0.77;;;;;;;18.41;33.76;98429.41;7398658;19;20014;-80
2023/04/14 04:22:43;;;;;;;0.57;0.57;;;;;;;18.55;33.56;98425.09;7393446;19;20074;-80
2023/04/14 04:25:10;;;;;;;4.57;1.83;;;;;;;18.55;33.14;98427.91;7393277;19;20023;-80
2023/04/14 04:27:40;;;;;;;0.45;0.45;;;;;;;18.55;33.16;98430.72;7395399;19;20039;-80
2023/04/14 04:30:15;;;;;;;0.65;0.65;;;;;;;18.45;33.45;98427.72;7399006;19;20484;-80
2023/04/14 04:32:41;;;;;;;0.60;0.38;;;;;;;18.35;33.58;98426.75;7394700;19;20010;-80
2023/04/14 04:35:10;;;;;;;0.95;0.60;;;;;;;18.34;33.60;98428.09;7394404;19;20029;-80
2023/04/14 04:37:37;;;;;;;0.43;0.43;;;;;;;18.38;33.10;98422.81;7393978;19;20047;-80
2023/04/14 04:40:03;;;;;;;0.30;0.30;;;;;;;18.27;33.60;98428.06;7398354;19;20025;-80
2023/04/14 04:42:31;;;;;;;0.50;0.50;;;;;;;18.29;33.12;98425.44;7392947;19;20014;-80
2023/04/14 04:44:57;;;;;;;0.55;0.55;;;;;;;18.29;33.50;98426.19;7394061;19;20023;-80
2023/04/14 04:47:23;;;;;;;1.05;1.05;;;;;;;18.36;33.42;98422.63;7392778;19;20468;-80
2023/04/14 04:49:49;;;;;;;10.60;1.35;;;;;;;18.38;33.62;98422.06;7397581;19;20068;-80
2023/04/14 04:52:15;;;;;;;0.40;0.40;;;;;;;18.36;33.77;98419.81;7392523;19;20472;-80
2023/04/14 04:54:42;;;;;;;0.73;0.73;;;;;;;18.40;33.85;98425.06;7392722;19;20043;-80
2023/04/14 04:57:08;;;;;;;0.60;0.60;;;;;;;18.47;33.88;98418.72;7394601;19;20019;-79
2023/04/14 04:59:35;;;;;;;0.80;0.80;;;;;;;18.57;33.62;98425.28;7396998;19;20018;-80
2023/04/14 05:02:01;;;;;;;0.63;0.63;;;;;;;18.67;33.95;98412.84;7393822;19;20352;-80
2023/04/14 05:04:27;;;;;;;1.75;0.52;;;;;;;18.59;33.69;98425.47;7393222;19;20015;-80
2023/04/14 05:06:53;;;;;;;0.45;0.45;;;;;;;18.60;33.41;98422.06;7395567;19;20405;-81
2023/04/14 05:09:19;;;;;;;0.52;0.52;;;;;;;18.55;33.71;98419.44;7395855;19;20010;-80
2023/04/14 05:11:45;;;;;;;5.93;0.82;;;;;;;18.52;33.80;98414.94;7393819;19;20367;-80
2023/04/14 05:14:11;;;;;;;2.75;0.82;;;;;;;18.60;33.59;98415.69;7394053;19;20010;-80
2023/04/14 05:16:37;;;;;;;0.35;0.35;;;;;;;18.70;33.73;98408.91;7395105;19;20027;-80
2023/04/14 05:19:03;;;;;;;0.85;0.47;;;;;;;18.78;33.58;98406.06;7396669;19;20023;-80
2023/04/14 05:21:29;;;;;;;1.48;1.02;;;;;;;18.79;33.43;98399.13;7392068;19;20425;-80
2023/04/14 05:23:56;;;;;;;1.33;1.02;;;;;;;18.68;33.61;98410.78;7394225;19;20026;-80
2023/04/14 05:26:22;;;;;;;1.52;1.45;;;;;;;18.66;33.62;98408.53;7392447;19;20383;-80
2023/04/14 05:28:48;;;;;;;0.47;0.47;;;;;;;18.66;33.70;98413.44;7393391;19;20468;-80
2023/04/14 05:31:14;;;;;;;1.02;1.02;;;;;;;18.70;33.87;98413.78;7393567;19;20042;-80
2023/04/14 05:33:40;;;;;;;0.70;0.70;;;;;;;18.82;33.83;98409.25;7394850;19;20018;-80
2023/04/14 05:36:07;;;;;;;0.65;0.65;;;;;;;18.93;33.59;98414.50;7394100;19;20014;-79
2023/04/14 05:38:38;;;;;;;0.68;0.68;;;;;;;19.09;33.70;98415.97;7394421;19;20043;-81
2023/04/14 05:41:05;;;;;;;1.05;1.05;;;;;;;19.22;33.69;98414.97;7393881;19;20362;-81
2023/04/14 05:43:32;;;;;;;86.00;17.77;;;;;;;19.22;33.55;98412.91;7390329;19;20539;-81
2023/04/14 05:45:59;;;;;;;59.20;14.20;;;;;;;19.23;33.63;98414.41;7392008;19;20018;-81
2023/04/14 05:48:27;;;;;;;40.30;12.30;;;;;;;19.21;33.84;98411.41;7394267;19;20010;-81
2023/04/14 05:50:53;;;;;;;35.08;8.85;;;;;;;19.25;34.18;98408.94;7392927;19;20019;-80
2023/04/14 05:53:19;;;;;;;32.70;7.82;;;;;;;19.35;34.06;98404.22;7391262;19;20014;-81
2023/04/14 05:55:47;;;;;;;32.35;4.88;;;;;;;19.35;33.78;98403.47;7393113;19;20015;-81
2023/04/14 05:58:13;;;;;;;2.47;2.28;;;;;;;19.34;34.43;98407.59;7393965;19;20014;-81
2023/04/14 06:00:39;;;;;;;5.88;2.45;;;;;;;19.22;34.24;98409.34;7392846;19;20018;-82
2023/04/14 06:03:07;;;;;;;13.70;3.60;;;;;;;19.29;34.55;98412.13;7394190;19;20086;-82
2023/04/14 06:05:33;;;;;;;13.82;4.22;;;;;;;19.47;34.30;98405.28;7394932;19;20357;-82
2023/04/14 06:07:59;;;;;;;9.48;2.40;;;;;;;19.56;34.35;98407.53;7396194;19;20006;-81
2023/04/14 06:10:25;;;;;;;8.32;2.00;;;;;;;19.74;34.34;98410.44;7393634;19;20471;-82
2023/04/14 06:12:51;;;;;;;2.13;1.45;;;;;;;19.86;34.38;98420.00;7392191;19;20015;-82
2023/04/14 06:15:17;;;;;;;2.45;2.35;;;;;;;20.01;33.97;98422.72;7395378;19;20367;-82
2023/04/14 06:17:46;;;;;;;1.75;1.65;;;;;;;20.00;34.43;98424.03;7395384;19;20705;-81
2023/04/14 06:20:13;;;;;;;1.08;1.08;;;;;;;19.81;34.47;98415.31;7394949;19;20010;-82
2023/04/14 06:22:39;;;;;;;0.95;0.90;;;;;;;19.87;34.35;98425.06;7394255;19;20018;-82
2023/04/14 06:25:06;;;;;;;1.25;1.10;;;;;;;19.98;34.49;98413.31;7393334;19;20457;-82
2023/04/14 06:27:32;;;;;;;0.68;0.65;;;;;;;19.97;34.86;98411.78;7394863;19;20022;-82
2023/04/14 06:30:01;;;;;;;1.42;1.38;;;;;;;20.10;34.65;98424.91;7393757;19;20010;-81
2023/04/14 06:32:28;;;;;;;1.17;1.17;;;;;;;20.17;34.59;98415.63;7392163;19;20046;-82
2023/04/14 06:34:54;;;;;;;0.60;0.60;;;;;;;20.38;34.53;98421.69;7392892;19;20011;-82
2023/04/14 06:37:20;;;;;;;1.10;1.10;;;;;;;20.46;34.64;98430.88;7392474;19;20044;-82
2023/04/14 06:39:46;;;;;;;0.52;0.50;;;;;;;20.45;34.78;98426.53;7390920;19;20721;-82
2023/04/14 06:42:14;;;;;;;4.13;1.38;;;;;;;20.46;35.01;98421.66;7391229;19;20090;-82
2023/04/14 06:44:40;;;;;;;0.88;0.52;;;;;;;20.86;34.64;98428.63;7392463;19;20504;-82
2023/04/14 06:47:07;;;;;;;4.57;1.65;;;;;;;20.98;34.58;98421.16;7391145;19;20047;-82
2023/04/14 06:49:33;;;;;;;1.52;1.42;;;;;;;21.17;34.40;98425.50;7393427;19;20022;-83
2023/04/14 06:52:00;;;;;;;1.25;0.60;;;;;;;21.34;34.67;98428.31;7389724;19;20014;-83
2023/04/14 06:54:26;;;;;;;1.10;1.10;;;;;;;21.44;34.68;98426.31;7389323;19;20011;-83
2023/04/14 06:56:52;;;;;;;0.75;0.75;;;;;;;21.67;34.89;98432.44;7391560;19;20053;-83
2023/04/14 06:59:20;;;;;;;0.88;0.88;;;;;;;21.68;34.59;98431.84;7392271;19;20010;-83
2023/04/14 07:01:46;;;;;;;0.40;0.40;;;;;;;21.70;35.28;98425.63;7389519;19;20022;-83
2023/04/14 07:04:14;;;;;;;2.88;2.30;;;;;;;21.87;35.17;98423.50;7391263;19;20036;-82
2023/04/14 07:06:40;;;;;;;0.35;0.35;;;;;;;21.92;35.22;98424.56;7391408;19;20015;-83
2023/04/14 07:09:06;;;;;;;0.45;0.45;;;;;;;22.10;35.26;98431.69;7392380;19;20355;-83
2023/04/14 07:11:32;;;;;;;3.72;1.20;;;;;;;22.23;35.06;98428.44;7389986;19;20566;-84
2023/04/14 07:13:58;;;;;;;0.40;0.40;;;;;;;22.32;35.40;98436.25;7390945;19;20400;-83
2023/04/14 07:16:24;;;;;;;0.60;0.60;;;;;;;22.45;35.57;98427.34;7394071;19;20026;-84
2023/04/14 07:18:51;;;;;;;1.15;0.85;;;;;;;22.56;34.93;98434.56;7391991;19;20018;-84
2023/04/14 07:21:17;;;;;;;1.13;1.13;;;;;;;22.41;35.32;98429.88;7388689;19;20091;-82
2023/04/14 07:23:43;;;;;;;0.38;0.38;;;;;;;22.21;35.77;98433.97;7390546;19;20014;-82
2023/04/14 07:26:09;;;;;;;9.85;1.33;;;;;;;22.26;35.79;98435.75;7388223;19;20029;-82
2023/04/14 07:28:36;;;;;;;0.65;0.65;;;;;;;22.54;35.87;98426.63;7390158;19;20035;-82
2023/04/14 07:31:09;;;;;;;0.45;0.45;;;;;;;22.79;35.66;98425.66;7390744;19;20018;-82
2023/04/14 07:33:35;;;;;;;0.40;0.40;;;;;;;22.85;35.40;98426.88;7387226;19;20043;-84
2023/04/14 07:36:06;;;;;;;2.15;0.68;;;;;;;22.98;35.33;98417.91;7384213;19;20014;-83
2023/04/14 07:38:33;;;;;;;1.00;1.00;;;;;;;23.01;35.33;98428.09;7391082;19;20031;-83
2023/04/14 07:41:03;;;;;;;0.50;0.50;;;;;;;23.02;35.79;98423.91;7390250;19;20010;-83
2023/04/14 07:43:38;;;;;;;1.30;0.70;;;;;;;23.08;35.41;98427.22;7388011;19;20488;-82
2023/04/14 07:46:06;;;;;;;0.40;0.40;;;;;;;23.06;35.67;98412.09;7388074;19;20371;-83
2023/04/14 07:48:36;;;;;;;0.63;0.63;;;;;;;23.10;35.25;98418.84;7389445;19;20010;-85
2023/04/14 07:51:04;;;;;;;0.73;0.73;;;;;;;23.41;35.76;98416.19;7392404;19;20033;-83
2023/04/14 07:53:31;;;;;;;0.60;0.60;;;;;;;23.77;35.48;98415.97;7394121;19;20014;-83
2023/04/14 07:55:58;;;;;;;22.13;1.48;;;;;;;23.75;35.14;98426.44;7397505;19;20334;-83
2023/04/14 07:58:24;;;;;;;10.43;1.20;;;;;;;23.91;35.08;98414.13;7396896;19;20015;-82
2023/04/14 08:00:51;;;;;;;0.73;0.47;;;;;;;23.99;35.21;98414.72;7394928;19;20042;-84
2023/04/14 08:03:17;;;;;;;0.60;0.60;;;;;;;24.15;34.91;98417.25;7395118;19;20014;-84
2023/04/14 08:05:43;;;;;;;3.72;1.23;;;;;;;24.20;35.03;98410.47;7393945;19;20010;-82
2023/04/14 08:08:11;;;;;;;0.98;0.98;;;;;;;24.24;34.93;98417.19;7395526;19;20015;-83
2023/04/14 08:10:38;;;;;;;0.80;0.80;;;;;;;24.32;35.43;98420.59;7396194;19;20010;-83
2023/04/14 08:13:04;;;;;;;0.60;0.60;;;;;;;24.57;35.42;98425.88;7392933;19;20109;-84
2023/04/14 08:15:31;;;;;;;0.45;0.45;;;;;;;24.69;35.32;98415.31;7394159;19;20014;-81
2023/04/14 08:17:57;;;;;;;0.65;0.50;;;;;;;24.52;34.82;98421.25;7395909;19;20353;-81
2023/04/14 08:20:23;;;;;;;0.52;0.50;;;;;;;24.48;35.08;98423.81;7400827;19;20496;-82
2023/04/14 08:22:49;;;;;;;0.60;0.60;;;;;;;24.51;35.03;98422.63;7397221;19;20025;-82
2023/04/14 08:25:15;;;;;;;2.72;0.90;;;;;;;24.56;35.10;98427.25;7395337;19;20470;-83
2023/04/14 08:27:42;;;;;;;6.03;0.85;;;;;;;24.60;34.98;98433.22;7397865;19;20010;-83
2023/04/14 08:30:09;;;;;;;0.40;0.40;;;;;;;24.77;35.19;98438.69;7398519;19;20478;-83
2023/04/14 08:32:35;;;;;;;0.55;0.55;;;;;;;24.95;35.18;98431.38;7397243;19;20022;-83
2023/04/14 08:35:02;;;;;;;0.63;0.63;;;;;;;25.00;35.01;98433.16;7397744;19;20469;-83
2023/04/14 08:37:28;;;;;;;0.40;0.40;;;;;;;24.80;34.75;98437.47;7396422;19;20103;-83
2023/04/14 08:39:54;;;;;;;1.10;0.90;;;;;;;24.91;35.31;98436.81;7397384;19;20022;-82
2023/04/14 08:42:20;;;;;;;0.73;0.73;;;;;;;25.07;35.50;98443.59;7396450;19;20011;-82
2023/04/14 08:44:47;;;;;;;1.67;0.52;;;;;;;25.23;35.49;98441.09;7394351;19;20029;-82
2023/04/14 08:47:14;;;;;;;5.05;0.82;;;;;;;25.50;35.11;98445.09;7395994;19;20027;-83
2023/04/14 08:49:45;;;;;;;2.97;1.23;;;;;;;25.63;35.19;98443.03;7396570;19;20026;-82
2023/04/14 08:52:12;;;;;;;0.60;0.60;;;;;;;25.74;34.84;98445.16;7394218;19;20520;-78
2023/04/14 08:54:39;;;;;;;3.40;0.77;;;;;;;25.89;35.21;98441.88;7393931;19;20451;-79
2023/04/14 08:57:10;;;;;;;0.35;0.35;;;;;;;25.63;34.99;98451.56;7399578;19;20018;-80
2023/04/14 08:59:37;;;;;;;0.80;0.80;;;;;;;25.58;35.28;98449.84;7396850;19;20022;-80
2023/04/14 09:02:05;;;;;;;2.35;1.02;;;;;;;25.67;35.17;98451.84;7392047;19;20023;-79
2023/04/14 09:04:32;;;;;;;0.52;0.52;;;;;;;25.92;35.33;98460.63;7394326;19;20326;-80
2023/04/14 09:06:59;;;;;;;5.45;0.50;;;;;;;26.07;34.99;98460.16;7394720;19;20082;-81
2023/04/14 09:09:26;;;;;;;4.40;0.60;;;;;;;26.03;34.91;98459.91;7395990;19;20019;-82
2023/04/14 09:11:53;;;;;;;2.00;1.48;;;;;;;26.03;34.97;98463.47;7394432;19;20517;-82
2023/04/14 09:14:20;;;;;;;0.45;0.45;;;;;;;25.95;35.23;98460.13;7393752;19;20032;-82
2023/04/14 09:16:47;;;;;;;0.95;0.43;;;;;;;26.05;35.00;98462.88;7394015;19;20007;-81
2023/04/14 09:19:15;;;;;;;1.10;0.50;;;;;;;26.40;35.20;98462.97;7394768;19;20062;-81
2023/04/14 09:21:41;;;;;;;0.68;0.68;;;;;;;26.48;34.55;98475.63;7391488;19;20030;-80
2023/04/14 09:24:07;;;;;;;0.52;0.52;;;;;;;26.37;34.69;98475.63;7394514;19;20057;-81
2023/04/14 09:26:33;;;;;;;0.73;0.73;;;;;;;26.39;35.07;98479.34;7393968;19;20011;-80
2023/04/14 09:29:00;;;;;;;0.85;0.85;;;;;;;25.83;35.44;98481.41;7395737;19;20018;-81
2023/04/14 09:31:29;;;;;;;0.43;0.43;;;;;;;25.89;35.04;98479.69;7391706;19;20011;-81
2023/04/14 09:33:56;;;;;;;0.50;0.50;;;;;;;25.92;35.16;98472.78;7393691;19;20022;-79
2023/04/14 09:36:23;;;;;;;1.20;0.80;;;;;;;25.76;35.23;98480.28;7393751;19;20010;-79
2023/04/14 09:38:50;;;;;;;1.42;1.33;;;;;;;25.71;34.96;98480.63;7391934;19;20431;-79
2023/04/14 09:41:18;;;;;;;0.60;0.60;;;;;;;25.61;35.34;98474.25;7392085;19;20087;-79
2023/04/14 09:43:44;;;;;;;0.60;0.60;;;;;;;25.58;35.07;98474.13;7390860;19;20537;-80
2023/04/14 09:46:11;;;;;;;0.73;0.73;;;;;;;25.50;35.00;98473.59;7389835;19;20414;-79
2023/04/14 09:48:49;;;;;;;0.63;0.63;;;;;;;25.65;35.28;98480.22;7392275;19;20014;-80
2023/04/14 09:51:15;;;;;;;0.47;0.47;;;;;;;25.54;35.03;98485.28;7390890;19;20035;-83
2023/04/14 09:53:41;;;;;;;0.68;0.68;;;;;;;25.55;34.77;98489.59;7388749;19;20101;-83
2023/04/14 09:56:10;;;;;;;5.88;1.13;;;;;;;25.72;35.19;98496.38;7392212;19;20394;-84
2023/04/14 09:58:41;;;;;;;0.40;0.40;;;;;;;25.77;35.33;98504.59;7393956;19;20014;-81
2023/04/14 10:01:15;;;;;;;0.40;0.40;;;;;;;25.82;35.00;98492.06;7391561;19;20047;-81
2023/04/14 10:03:43;;;;;;;0.70;0.70;;;;;;;25.95;35.23;98500.06;7388998;19;20010;-84
2023/04/14 10:06:12;;;;;;;0.40;0.40;;;;;;;25.97;35.20;98490.88;7390649;19;20014;-82
2023/04/14 10:08:41;;;;;;;1.05;0.75;;;;;;;26.03;35.41;98494.16;7391090;19;20018;-82
2023/04/14 10:11:24;;;;;;;0.50;0.50;;;;;;;26.16;35.66;98490.72;7391322;19;20021;-82
2023/04/14 10:14:05;;;;;;;0.32;0.32;;;;;;;26.28;35.53;98491.50;7389234;19;20022;-84
2023/04/14 10:16:32;;;;;;;0.32;0.32;;;;;;;26.34;35.58;98489.00;7391172;19;20019;-81
2023/04/14 10:18:59;;;;;;;0.80;0.80;;;;;;;26.38;35.63;98500.69;7394256;19;20427;-81
2023/04/14 10:21:26;;;;;;;0.65;0.55;;;;;;;26.55;35.46;98503.19;7390806;19;20018;-81
2023/04/14 10:23:55;;;;;;;1.10;0.82;;;;;;;26.61;34.89;98497.88;7392258;19;20046;-81
2023/04/14 10:26:21;;;;;;;4.20;1.08;;;;;;;26.62;35.05;98502.19;7390125;19;20019;-81
2023/04/14 10:28:50;;;;;;;0.63;0.63;;;;;;;26.46;35.12;98506.91;7391654;19;20031;-81
2023/04/14 10:31:28;;;;;;;0.40;0.40;;;;;;;26.57;34.70;98508.28;7392444;19;20074;-81
2023/04/14 10:33:54;;;;;;;4.22;0.68;;;;;;;26.75;35.39;98510.19;7391792;19;20022;-81
2023/04/14 10:36:26;;;;;;;7.13;0.60;;;;;;;26.90;35.26;98512.53;7388594;19;20014;-81
2023/04/14 10:39:01;;;;;;;4.03;0.98;;;;;;;27.11;35.06;98510.94;7391573;19;20033;-81
2023/04/14 10:41:47;;;;;;;7.50;2.80;;;;;;;27.24;34.75;98518.84;7389680;19;20119;-81
2023/04/14 10:44:30;;;;;;;5.07;1.63;;;;;;;27.04;34.21;98524.09;7390738;19;20019;-81
2023/04/14 10:46:59;;;;;;;2.58;0.90;;;;;;;26.85;34.44;98525.13;7387793;19;20426;-82
2023/04/14 10:49:29;;;;;;;1.27;0.75;;;;;;;26.94;34.39;98509.94;7393152;19;20014;-81
2023/04/14 10:52:00;;;;;;;2.22;1.00;;;;;;;27.24;34.82;98513.13;7389026;19;20019;-82
2023/04/14 10:54:27;;;;;;;2.30;1.33;;;;;;;27.18;34.10;98513.50;7391111;19;20022;-81
2023/04/14 10:57:11;;;;;;;8.48;0.90;;;;;;;27.23;34.24;98523.06;7387635;19;20361;-81
2023/04/14 10:59:42;;;;;;;1.35;0.90;;;;;;;27.10;33.59;98526.56;7391529;19;20054;-81
2023/04/14 11:02:25;;;;;;;6.72;1.90;;;;;;;27.20;34.39;98518.63;7391346;19;20061;-81
2023/04/14 11:05:05;;;;;;;3.63;0.80;;;;;;;27.14;33.70;98515.41;7390830;19;20017;-80
2023/04/14 11:07:54;;;;;;;4.20;0.95;;;;;;;27.42;34.30;98523.56;7391854;19;20019;-81
2023/04/14 11:10:23;;;;;;;1.23;1.13;;;;;;;27.37;33.58;98521.09;7394809;19;20355;-82
2023/04/14 11:13:09;;;;;;;1.15;1.00;;;;;;;27.15;33.74;98523.34;7389285;19;20019;-79
2023/04/14 11:15:49;;;;;;;1.75;0.80;;;;;;;26.98;33.64;98530.19;7391450;19;20018;-79
2023/04/14 11:18:33;;;;;;;5.55;0.63;;;;;;;26.96;34.01;98532.19;7390114;19;20028;-79
2023/04/14 11:21:05;;;;;;;3.38;0.50;;;;;;;26.82;33.95;98532.06;7390136;19;20018;-78
2023/04/14 11:23:32;;;;;;;1.25;1.15;;;;;;;26.72;34.02;98525.69;7390517;19;20011;-79
2023/04/14 11:25:58;;;;;;;1.85;0.90;;;;;;;26.63;33.79;98529.41;7391548;19;20038;-78
2023/04/14 11:28:35;;;;;;;1.33;0.70;;;;;;;26.63;34.25;98520.84;7397991;19;20038;-79
2023/04/14 11:31:04;;;;;;;2.17;0.40;;;;;;;26.50;34.86;98527.16;7396934;19;20023;-80
2023/04/14 11:33:31;;;;;;;0.40;0.40;;;;;;;26.71;34.37;98529.91;7393868;19;20010;-80
2023/04/14 11:35:58;;;;;;;0.50;0.50;;;;;;;26.82;34.31;98537.78;7396207;19;20031;-80
2023/04/14 11:38:24;;;;;;;11.02;1.85;;;;;;;26.83;34.17;98533.53;7399054;19;20022;-80
2023/04/14 11:40:51;;;;;;;0.68;0.55;;;;;;;26.75;34.44;98532.28;7395199;19;20429;-79